Time;durP1;ratioP1;P1;durP2;ratioP2;P2;SDS_P1;SDS_P2;PMS_P1;PMS_P2;Temp;Humidity;BMP_temperature;BMP_pressure;BME280_temperature;BME280_humidity;BME280_pressure;Samples;Min_cycle;Max_cycle;Signal;HPM_P1;HPM_P2
2023/04/04 00:02:25;;;;;;;5.23;2.60;;;;;2.30;97051.00;;;;8298130;28;20738;-72
2023/04/04 00:06:30;;;;;;;4.13;2.53;;;;;2.20;97053.00;;;;8298389;28;20295;-71
2023/04/04 00:10:42;;;;;;;3.70;1.90;;;;;2.10;97035.00;;;;8301798;28;20200;-72
2023/04/04 00:14:47;;;;;;;9.90;2.40;;;;;2.00;97047.00;;;;8304885;28;20203;-72
2023/04/04 00:18:56;;;;;;;3.53;2.00;;;;;1.90;97039.00;;;;8304702;28;20207;-72
2023/04/04 00:22:59;;;;;;;2.27;2.10;;;;;1.90;97042.00;;;;8300627;28;20307;-72
2023/04/04 00:27:03;;;;;;;4.00;2.13;;;;;1.80;97037.00;;;;8304491;28;20236;-72
2023/04/04 00:31:10;;;;;;;4.90;2.53;;;;;1.70;97033.00;;;;8304132;28;20194;-72
2023/04/04 00:35:17;;;;;;;3.87;2.73;;;;;1.60;97030.00;;;;8286683;28;20190;-72
2023/04/04 00:39:27;;;;;;;4.87;2.87;;;;;1.60;97019.00;;;;8304256;28;20501;-71
2023/04/04 00:43:32;;;;;;;3.13;2.23;;;;;1.50;97014.00;;;;8303569;28;20205;-73
2023/04/04 00:47:38;;;;;;;4.60;2.27;;;;;1.40;97017.00;;;;8304942;28;20203;-72
2023/04/04 00:51:42;;;;;;;5.37;2.50;;;;;1.30;97015.00;;;;8303856;28;20689;-73
2023/04/04 00:55:45;;;;;;;5.57;2.23;;;;;1.20;97012.00;;;;8303964;28;20198;-72
2023/04/04 00:59:49;;;;;;;4.33;2.43;;;;;1.10;96997.00;;;;8302253;28;20230;-72
2023/04/04 01:03:52;;;;;;;5.13;2.20;;;;;1.00;97012.00;;;;8303886;28;20269;-72
2023/04/04 01:07:57;;;;;;;6.07;2.73;;;;;1.00;97008.00;;;;8301887;28;20278;-72
2023/04/04 01:12:01;;;;;;;5.97;2.37;;;;;0.90;97009.00;;;;8303913;28;20213;-72
2023/04/04 01:16:04;;;;;;;4.07;2.10;;;;;0.80;97000.00;;;;8302622;28;20289;-72
2023/04/04 01:20:12;;;;;;;2.20;1.97;;;;;0.80;96998.00;;;;8302893;28;20244;-71
2023/04/04 01:24:19;;;;;;;6.20;2.13;;;;;0.70;96989.00;;;;8303157;28;20264;-71
2023/04/04 01:28:26;;;;;;;2.27;2.07;;;;;0.60;96985.00;;;;8302753;28;20190;-71
2023/04/04 01:32:46;;;;;;;5.40;2.73;;;;;0.60;96970.00;;;;8303354;28;20202;-70
2023/04/04 01:36:54;;;;;;;4.60;2.00;;;;;0.60;96977.00;;;;8301983;28;20192;-70
2023/04/04 01:41:02;;;;;;;3.93;2.33;;;;;0.50;96965.00;;;;8302631;28;20636;-70
2023/04/04 01:45:08;;;;;;;2.10;2.00;;;;;0.40;96966.00;;;;8301865;28;20219;-69
2023/04/04 01:49:11;;;;;;;4.03;2.43;;;;;0.40;96967.00;;;;8302387;28;20197;-69
2023/04/04 01:53:19;;;;;;;3.07;2.37;;;;;0.30;96958.00;;;;8302491;28;20529;-69
2023/04/04 01:57:22;;;;;;;3.07;2.50;;;;;0.30;96972.00;;;;8301012;28;20524;-68
2023/04/04 02:01:26;;;;;;;4.53;2.70;;;;;0.20;96966.00;;;;8301841;28;20264;-68
2023/04/04 02:05:29;;;;;;;5.93;2.60;;;;;0.20;96961.00;;;;8301056;28;20224;-68
2023/04/04 02:09:33;;;;;;;2.87;2.40;;;;;0.20;96965.00;;;;8302094;28;20205;-68
2023/04/04 02:13:40;;;;;;;2.50;2.27;;;;;0.20;96959.00;;;;8300862;28;20190;-68
2023/04/04 02:17:50;;;;;;;4.13;2.50;;;;;0.10;96963.00;;;;8302171;28;20182;-68
2023/04/04 02:21:53;;;;;;;5.97;2.60;;;;;0.10;96952.00;;;;8301166;28;20636;-68
2023/04/04 02:25:56;;;;;;;7.70;2.70;;;;;0.10;96969.00;;;;8300998;28;20227;-68
2023/04/04 02:30:00;;;;;;;5.50;2.30;;;;;0.10;96957.00;;;;8299538;28;20588;-69
2023/04/04 02:34:06;;;;;;;4.37;2.73;;;;;0.10;96961.00;;;;8299481;28;20198;-69
2023/04/04 02:38:09;;;;;;;3.83;2.40;;;;;0.00;96963.00;;;;8301511;28;20647;-69
2023/04/04 02:42:13;;;;;;;6.20;3.23;;;;;-0.10;96960.00;;;;8300354;28;20198;-70
2023/04/04 02:46:16;;;;;;;2.60;2.40;;;;;-0.10;96950.00;;;;8300852;28;20237;-70
2023/04/04 02:50:25;;;;;;;3.90;2.50;;;;;-0.10;96957.00;;;;8298908;28;20296;-70
2023/04/04 02:54:29;;;;;;;8.80;2.97;;;;;-0.20;96961.00;;;;8301037;28;20202;-71
2023/04/04 02:58:32;;;;;;;3.27;2.33;;;;;-0.20;96964.00;;;;8300099;28;20206;-71
2023/04/04 03:02:35;;;;;;;2.57;2.37;;;;;-0.20;96964.00;;;;8314036;23;20264;-79
2023/04/04 03:06:43;;;;;;;3.77;2.80;;;;;-0.20;96957.00;;;;8281084;28;20264;-76
2023/04/04 03:10:46;;;;;;;3.87;2.57;;;;;-0.20;96960.00;;;;8283522;28;20206;-79
2023/04/04 03:14:49;;;;;;;3.20;2.77;;;;;-0.30;96958.00;;;;8284042;28;20866;-74
2023/04/04 03:18:52;;;;;;;6.87;3.43;;;;;-0.30;96958.00;;;;8276740;28;20229;-75
2023/04/04 03:22:56;;;;;;;3.70;2.30;;;;;-0.30;96950.00;;;;8273083;28;20198;-75
2023/04/04 03:27:03;;;;;;;4.53;2.50;;;;;-0.40;96948.00;;;;8278851;28;20831;-76
2023/04/04 03:31:08;;;;;;;3.00;2.50;;;;;-0.40;96955.00;;;;8272074;28;20632;-77
2023/04/04 03:35:12;;;;;;;5.30;2.53;;;;;-0.40;96949.00;;;;8277356;28;20207;-76
2023/04/04 03:39:20;;;;;;;4.07;2.50;;;;;-0.40;96945.00;;;;8282773;28;20209;-76
2023/04/04 03:43:27;;;;;;;4.93;2.60;;;;;-0.40;96947.00;;;;8281114;28;20659;-75
2023/04/04 03:47:30;;;;;;;4.63;2.43;;;;;-0.50;96948.00;;;;8281265;28;20227;-75
2023/04/04 03:51:34;;;;;;;2.90;2.60;;;;;-0.50;96941.00;;;;8258338;28;20711;-75
2023/04/04 03:55:42;;;;;;;2.27;2.07;;;;;-0.50;96948.00;;;;8270954;28;20719;-75
2023/04/04 03:59:51;;;;;;;6.63;2.63;;;;;-0.50;96945.00;;;;8274862;28;20207;-72
2023/04/04 04:03:54;;;;;;;5.30;2.70;;;;;-0.50;96960.00;;;;8276684;28;20240;-71
2023/04/04 04:07:57;;;;;;;4.30;3.07;;;;;-0.60;96953.00;;;;8281855;28;20268;-71
2023/04/04 04:12:01;;;;;;;4.50;2.60;;;;;-0.60;96959.00;;;;8283151;28;20229;-70
2023/04/04 04:16:04;;;;;;;3.77;2.50;;;;;-0.60;96955.00;;;;8278763;28;20202;-70
2023/04/04 04:20:09;;;;;;;5.27;2.40;;;;;-0.70;96951.00;;;;8282928;28;20325;-71
2023/04/04 04:24:12;;;;;;;4.17;3.17;;;;;-0.70;96956.00;;;;8277498;28;20225;-70
2023/04/04 04:28:16;;;;;;;8.23;3.13;;;;;-0.70;96955.00;;;;8280184;28;20262;-69
2023/04/04 04:32:25;;;;;;;3.07;2.57;;;;;-0.80;96956.00;;;;8274295;28;20752;-69
2023/04/04 04:36:29;;;;;;;4.57;2.70;;;;;-0.80;96956.00;;;;8283493;28;20212;-69
2023/04/04 04:40:32;;;;;;;4.77;2.50;;;;;-0.80;96959.00;;;;8282546;28;20206;-69
2023/04/04 04:44:36;;;;;;;5.10;3.10;;;;;-0.90;96952.00;;;;8283714;28;20902;-70
2023/04/04 04:48:39;;;;;;;4.37;3.17;;;;;-1.00;96950.00;;;;8270376;28;20712;-69
2023/04/04 04:52:43;;;;;;;5.80;2.77;;;;;-1.00;96956.00;;;;8272652;28;20207;-69
2023/04/04 04:56:46;;;;;;;5.20;2.83;;;;;-1.00;96957.00;;;;8285038;28;20293;-69
2023/04/04 05:00:55;;;;;;;5.07;3.20;;;;;-0.90;96951.00;;;;8269686;28;20280;-68
2023/04/04 05:04:59;;;;;;;6.53;3.27;;;;;-0.90;96956.00;;;;8284147;28;20213;-68
2023/04/04 05:09:07;;;;;;;6.07;3.50;;;;;-0.90;96959.00;;;;8286591;28;20655;-69
2023/04/04 05:13:12;;;;;;;6.93;3.13;;;;;-0.90;96955.00;;;;8288270;28;20263;-68
2023/04/04 05:17:18;;;;;;;3.97;3.00;;;;;-0.90;96962.00;;;;8287984;28;20213;-70
2023/04/04 05:21:22;;;;;;;7.17;3.33;;;;;-0.80;96968.00;;;;8289154;28;20654;-70
2023/04/04 05:25:27;;;;;;;9.23;3.67;;;;;-0.80;96965.00;;;;8286363;28;20233;-68
2023/04/04 05:29:30;;;;;;;11.80;4.93;;;;;-0.70;96969.00;;;;8285430;28;20521;-68
2023/04/04 05:33:35;;;;;;;8.90;3.37;;;;;-0.60;96977.00;;;;8267868;28;20195;-67
2023/04/04 05:37:39;;;;;;;6.20;2.70;;;;;-0.50;96975.00;;;;8285973;28;20202;-69
2023/04/04 05:41:42;;;;;;;3.77;2.80;;;;;-0.40;96968.00;;;;8285668;28;20240;-68
2023/04/04 05:45:45;;;;;;;3.83;3.03;;;;;-0.30;96978.00;;;;8264592;28;20236;-68
2023/04/04 05:49:52;;;;;;;7.10;3.13;;;;;-0.20;96979.00;;;;8284999;28;20213;-68
2023/04/04 05:53:55;;;;;;;4.17;2.53;;;;;-0.10;96973.00;;;;8283341;28;20202;-68
2023/04/04 05:57:58;;;;;;;4.50;2.80;;;;;0.00;96984.00;;;;8281395;28;20202;-67
2023/04/04 06:02:00;;;;;;;5.00;2.90;;;;;0.10;96975.00;;;;8283773;28;20260;-69
2023/04/04 06:06:08;;;;;;;9.03;3.90;;;;;0.20;96984.00;;;;8269021;28;20226;-69
2023/04/04 06:10:14;;;;;;;8.93;2.97;;;;;0.20;96974.00;;;;8287799;28;20293;-71
2023/04/04 06:14:25;;;;;;;6.00;2.83;;;;;0.30;96982.00;;;;8263962;28;20203;-71
2023/04/04 06:18:29;;;;;;;2.93;2.57;;;;;0.40;96979.00;;;;8302586;28;20189;-73
2023/04/04 06:22:33;;;;;;;3.80;2.13;;;;;0.50;96976.00;;;;8317394;28;20215;-77
2023/04/04 06:26:36;;;;;;;6.40;2.43;;;;;0.60;96977.00;;;;8317818;28;20230;-78
2023/04/04 06:30:39;;;;;;;5.37;3.00;;;;;0.70;96976.00;;;;8317905;28;20210;-67
2023/04/04 06:34:45;;;;;;;5.23;3.10;;;;;0.80;96973.00;;;;8317410;28;20196;-69
2023/04/04 06:38:50;;;;;;;3.53;2.87;;;;;0.90;96985.00;;;;8317137;28;20229;-65
2023/04/04 06:42:56;;;;;;;4.80;3.47;;;;;1.00;96990.00;;;;8317343;28;20638;-67
2023/04/04 06:46:59;;;;;;;4.50;2.60;;;;;1.20;96991.00;;;;8320211;28;20222;-68
2023/04/04 06:51:07;;;;;;;7.50;3.40;;;;;1.30;96992.00;;;;8320994;28;20715;-66
2023/04/04 06:55:22;;;;;;;7.77;3.07;;;;;1.40;96989.00;;;;8318555;28;20638;-68
2023/04/04 06:59:30;;;;;;;3.67;3.30;;;;;1.50;96999.00;;;;8319636;28;20194;-69
2023/04/04 07:03:32;;;;;;;7.50;3.30;;;;;1.50;96998.00;;;;8316820;28;20227;-69
2023/04/04 07:07:35;;;;;;;4.57;3.50;;;;;1.80;97000.00;;;;8317836;28;20229;-69
2023/04/04 07:11:43;;;;;;;5.97;3.27;;;;;1.90;96998.00;;;;8316378;28;20304;-70
2023/04/04 07:15:47;;;;;;;5.33;3.20;;;;;2.30;97000.00;;;;8318673;28;20550;-70
2023/04/04 07:19:51;;;;;;;6.27;2.80;;;;;2.60;97005.00;;;;8316940;28;20256;-70
2023/04/04 07:24:02;;;;;;;5.87;3.27;;;;;3.00;96991.00;;;;8299203;28;20560;-68
2023/04/04 07:28:07;;;;;;;3.33;2.63;;;;;3.20;97009.00;;;;8317045;28;20681;-71
2023/04/04 07:32:15;;;;;;;7.87;3.30;;;;;3.10;97002.00;;;;8316616;28;20283;-77
2023/04/04 07:36:18;;;;;;;7.70;3.53;;;;;3.20;97006.00;;;;8318459;28;20201;-70
2023/04/04 07:40:21;;;;;;;6.40;3.73;;;;;3.40;97002.00;;;;8310108;28;20658;-74
2023/04/04 07:44:25;;;;;;;5.30;3.30;;;;;3.50;97005.00;;;;8317260;28;20226;-70
2023/04/04 07:48:29;;;;;;;5.63;3.47;;;;;3.60;97006.00;;;;8326738;28;20233;-69
2023/04/04 07:52:32;;;;;;;5.93;3.73;;;;;3.80;97010.00;;;;8317958;28;20994;-70
2023/04/04 07:56:35;;;;;;;5.63;3.20;;;;;4.00;97008.00;;;;8316887;28;20213;-69
2023/04/04 08:00:40;;;;;;;9.10;4.23;;;;;4.20;97000.00;;;;8318600;28;20193;-71
2023/04/04 08:04:43;;;;;;;5.73;3.30;;;;;4.50;97010.00;;;;8308224;28;20238;-68
2023/04/04 08:08:47;;;;;;;6.13;3.23;;;;;4.70;97019.00;;;;8313857;28;20227;-67
2023/04/04 08:12:54;;;;;;;7.00;2.93;;;;;4.70;97006.00;;;;8317427;28;20207;-70
2023/04/04 08:17:03;;;;;;;8.07;3.97;;;;;4.50;97009.00;;;;8315211;28;20283;-69
2023/04/04 08:21:06;;;;;;;5.50;3.20;;;;;4.90;96997.00;;;;8316957;28;20300;-69
2023/04/04 08:25:10;;;;;;;6.97;3.07;;;;;5.20;97010.00;;;;8316142;28;20231;-68
2023/04/04 08:29:13;;;;;;;4.87;3.03;;;;;5.60;97006.00;;;;8314443;28;20259;-68
2023/04/04 08:33:20;;;;;;;5.13;3.10;;;;;5.20;97018.00;;;;8321234;28;20197;-70
2023/04/04 08:37:29;;;;;;;7.77;2.77;;;;;4.90;97009.00;;;;8323440;28;20201;-70
2023/04/04 08:41:36;;;;;;;3.27;2.80;;;;;4.60;97013.00;;;;8306349;28;20300;-69
2023/04/04 08:45:42;;;;;;;5.80;3.70;;;;;4.30;97003.00;;;;8311298;28;20232;-72
2023/04/04 08:49:50;;;;;;;5.27;3.00;;;;;4.10;97005.00;;;;8324611;28;20269;-71
2023/04/04 08:53:54;;;;;;;7.70;3.40;;;;;4.10;97011.00;;;;8305619;28;20208;-70
2023/04/04 08:57:57;;;;;;;5.00;3.50;;;;;4.40;97015.00;;;;8322615;28;20208;-71
2023/04/04 09:02:14;;;;;;;4.50;3.00;;;;;4.90;97011.00;;;;8322190;28;20235;-68
2023/04/04 09:06:20;;;;;;;7.33;3.47;;;;;5.30;97005.00;;;;8317128;28;20207;-68
2023/04/04 09:10:29;;;;;;;4.80;3.20;;;;;5.30;97016.00;;;;8320397;28;20201;-69
2023/04/04 09:14:36;;;;;;;4.53;3.10;;;;;5.10;97004.00;;;;8322394;28;20205;-67
2023/04/04 09:18:41;;;;;;;5.10;2.60;;;;;4.80;96999.00;;;;8319358;28;20258;-69
2023/04/04 09:22:49;;;;;;;3.97;3.27;;;;;4.70;96999.00;;;;8317299;28;20209;-68
2023/04/04 09:26:53;;;;;;;3.67;3.00;;;;;4.90;97007.00;;;;8323383;28;20295;-69
2023/04/04 09:31:03;;;;;;;5.53;2.97;;;;;5.00;97001.00;;;;8304359;28;20269;-68
2023/04/04 09:35:07;;;;;;;4.20;3.10;;;;;5.40;96997.00;;;;8317361;28;20206;-69
2023/04/04 09:39:12;;;;;;;5.23;2.60;;;;;6.90;97005.00;;;;8317308;28;20240;-68
2023/04/04 09:43:17;;;;;;;6.53;3.57;;;;;6.90;97008.00;;;;8321245;28;20267;-69
2023/04/04 09:47:26;;;;;;;4.27;2.70;;;;;7.50;97012.00;;;;8328763;28;20225;-70
2023/04/04 09:51:35;;;;;;;8.17;3.63;;;;;8.10;97013.00;;;;8318508;28;20220;-68
2023/04/04 09:55:40;;;;;;;5.20;3.50;;;;;9.20;97016.00;;;;8320757;28;20209;-70
2023/04/04 09:59:45;;;;;;;5.97;3.07;;;;;9.50;97031.00;;;;8321672;28;20257;-69
2023/04/04 10:03:52;;;;;;;6.00;3.00;;;;;10.10;97008.00;;;;8320133;28;20229;-70
2023/04/04 10:07:57;;;;;;;3.63;3.03;;;;;10.50;97008.00;;;;8321304;28;20229;-69
2023/04/04 10:12:09;;;;;;;4.70;2.70;;;;;11.30;97005.00;;;;8309948;28;20209;-69
2023/04/04 10:16:14;;;;;;;6.13;2.90;;;;;11.60;97007.00;;;;8315962;28;20854;-69
2023/04/04 10:20:17;;;;;;;4.90;3.00;;;;;12.40;97011.00;;;;8312257;28;20232;-71
2023/04/04 10:24:23;;;;;;;3.47;2.80;;;;;12.80;97007.00;;;;8291383;28;20663;-71
2023/04/04 10:28:36;;;;;;;3.80;3.00;;;;;12.20;97017.00;;;;8316495;28;20222;-71
2023/04/04 10:32:50;;;;;;;6.07;2.97;;;;;12.30;97009.00;;;;8313694;28;20201;-69
2023/04/04 10:36:57;;;;;;;3.33;2.85;;;;;12.40;97013.00;;;;8315637;28;20276;-68
2023/04/04 10:41:11;;;;;;;3.40;2.80;;;;;10.40;97004.00;;;;8317948;28;20229;-70
2023/04/04 10:45:17;;;;;;;5.63;3.20;;;;;9.50;97001.00;;;;8316591;28;20247;-68
2023/04/04 10:49:36;;;;;;;3.40;2.70;;;;;8.30;96986.00;;;;8311926;28;20233;-68
2023/04/04 10:53:40;;;;;;;7.07;3.00;;;;;7.70;96981.00;;;;8316188;28;20225;-69
2023/04/04 10:57:51;;;;;;;3.17;2.47;;;;;7.50;96982.00;;;;8313493;28;20201;-68
2023/04/04 11:02:06;;;;;;;4.03;3.03;;;;;7.30;96982.00;;;;8316835;28;20225;-68
2023/04/04 11:06:14;;;;;;;6.73;3.53;;;;;6.90;96983.00;;;;8314066;28;20202;-68
2023/04/04 11:10:22;;;;;;;6.17;3.37;;;;;6.50;96976.00;;;;8317694;28;20217;-68
2023/04/04 11:14:29;;;;;;;3.70;2.83;;;;;6.30;96965.00;;;;8316878;28;20239;-68
2023/04/04 11:18:49;;;;;;;8.97;3.10;;;;;6.50;96961.00;;;;8312670;28;20189;-68
2023/04/04 11:23:05;;;;;;;6.07;3.00;;;;;7.20;96960.00;;;;8312207;28;20243;-68
2023/04/04 11:27:13;;;;;;;4.90;2.80;;;;;7.80;96950.00;;;;8318325;28;20252;-68
2023/04/04 11:31:24;;;;;;;2.90;2.60;;;;;9.00;96960.00;;;;8314856;28;20548;-68
2023/04/04 11:35:29;;;;;;;3.53;3.10;;;;;9.00;96952.00;;;;8315105;28;20189;-68
2023/04/04 11:39:33;;;;;;;5.37;2.53;;;;;8.50;96941.00;;;;8299358;28;20212;-68
2023/04/04 11:43:44;;;;;;;5.13;2.70;;;;;7.70;96952.00;;;;8317568;28;20202;-68
2023/04/04 11:47:55;;;;;;;4.93;3.10;;;;;7.00;96946.00;;;;8324843;28;20594;-68
2023/04/04 11:52:03;;;;;;;6.77;3.00;;;;;6.90;96941.00;;;;8311624;28;20665;-67
2023/04/04 11:56:07;;;;;;;3.40;2.83;;;;;6.90;96937.00;;;;8317634;28;20193;-68
2023/04/04 12:00:14;;;;;;;3.10;2.40;;;;;6.80;96936.00;;;;8317537;28;20205;-67
2023/04/04 12:04:19;;;;;;;4.33;3.00;;;;;6.40;96932.00;;;;8317491;28;20237;-67
2023/04/04 12:08:25;;;;;;;3.97;2.90;;;;;6.10;96935.00;;;;8319824;28;20603;-67
2023/04/04 12:12:30;;;;;;;4.97;2.80;;;;;6.00;96942.00;;;;8319717;28;20194;-68
2023/04/04 12:16:37;;;;;;;4.70;3.57;;;;;6.10;96932.00;;;;8322181;28;20197;-68
2023/04/04 12:20:41;;;;;;;3.07;2.77;;;;;6.30;96941.00;;;;8318926;28;20292;-67
2023/04/04 12:24:49;;;;;;;8.07;3.30;;;;;6.30;96930.00;;;;8317586;28;20798;-68
2023/04/04 12:28:55;;;;;;;4.80;2.77;;;;;6.40;96931.00;;;;8320701;28;20237;-67
2023/04/04 12:33:02;;;;;;;6.13;3.27;;;;;6.70;96920.00;;;;8322815;28;20197;-67
2023/04/04 12:37:10;;;;;;;3.20;2.90;;;;;7.20;96932.00;;;;8317449;28;20298;-67
2023/04/04 12:41:18;;;;;;;4.37;3.10;;;;;7.50;96924.00;;;;8316991;28;20532;-67
2023/04/04 12:45:22;;;;;;;4.37;3.03;;;;;7.60;96925.00;;;;8316527;28;20248;-68
2023/04/04 12:49:28;;;;;;;5.40;3.20;;;;;7.60;96922.00;;;;8319023;28;20232;-68
2023/04/04 12:53:32;;;;;;;4.97;2.87;;;;;7.50;96925.00;;;;8312269;28;20198;-68
2023/04/04 12:57:41;;;;;;;4.80;3.00;;;;;7.40;96922.00;;;;8320624;28;20221;-68
2023/04/04 13:01:49;;;;;;;5.73;3.20;;;;;7.20;96922.00;;;;8319326;28;20714;-69
2023/04/04 13:05:55;;;;;;;5.50;2.80;;;;;7.20;96923.00;;;;8319786;28;20222;-68
2023/04/04 13:10:00;;;;;;;3.60;3.00;;;;;7.10;96913.00;;;;8302056;28;20222;-68
2023/04/04 13:14:07;;;;;;;5.37;3.50;;;;;7.10;96913.00;;;;8315233;28;20198;-70
2023/04/04 13:18:15;;;;;;;4.87;3.13;;;;;7.00;96915.00;;;;8320614;28;20229;-70
2023/04/04 13:22:21;;;;;;;3.83;3.10;;;;;7.10;96912.00;;;;8320541;28;20212;-70
2023/04/04 13:26:25;;;;;;;6.17;3.00;;;;;7.40;96902.00;;;;8322196;28;20200;-72
2023/04/04 13:30:30;;;;;;;5.77;3.07;;;;;7.60;96905.00;;;;8316441;28;20229;-72
2023/04/04 13:34:34;;;;;;;4.30;2.87;;;;;8.00;96896.00;;;;8319977;28;20205;-71
2023/04/04 13:38:40;;;;;;;5.10;2.60;;;;;8.30;96884.00;;;;8320563;28;20206;-72
2023/04/04 13:42:42;;;;;;;5.70;3.87;;;;;8.70;96879.00;;;;8318664;28;20216;-70
2023/04/04 13:46:47;;;;;;;8.73;3.20;;;;;8.80;96878.00;;;;8303469;28;20228;-71
2023/04/04 13:50:51;;;;;;;4.97;3.20;;;;;9.10;96881.00;;;;8306058;28;20268;-70
2023/04/04 13:54:56;;;;;;;7.03;3.37;;;;;9.00;96879.00;;;;8319986;28;20259;-71
2023/04/04 13:58:59;;;;;;;4.57;3.40;;;;;8.70;96875.00;;;;8313372;28;20202;-71
2023/04/04 14:03:03;;;;;;;8.10;3.93;;;;;8.40;96882.00;;;;8317614;28;20236;-71
2023/04/04 14:07:09;;;;;;;5.23;3.50;;;;;8.40;96874.00;;;;8316537;28;20231;-71
2023/04/04 14:11:13;;;;;;;6.60;3.63;;;;;8.50;96871.00;;;;8317972;28;20228;-70
2023/04/04 14:15:16;;;;;;;6.37;3.60;;;;;8.50;96873.00;;;;8319898;28;20225;-72
2023/04/04 14:19:23;;;;;;;4.63;3.70;;;;;8.90;96872.00;;;;8310971;28;20201;-70
2023/04/04 14:23:29;;;;;;;5.70;3.43;;;;;9.70;96868.00;;;;8318941;28;20201;-71
2023/04/04 14:27:36;;;;;;;7.73;4.20;;;;;9.80;96881.00;;;;8312779;28;20305;-72
2023/04/04 14:31:39;;;;;;;5.20;3.30;;;;;8.80;96876.00;;;;8317725;28;20240;-71
2023/04/04 14:35:43;;;;;;;6.43;4.40;;;;;8.40;96869.00;;;;8319215;28;20924;-71
2023/04/04 14:39:47;;;;;;;6.53;3.60;;;;;8.20;96874.00;;;;8310317;28;20205;-71
2023/04/04 14:43:50;;;;;;;7.80;3.83;;;;;8.40;96873.00;;;;8318650;28;20351;-70
2023/04/04 14:47:54;;;;;;;4.73;3.40;;;;;8.90;96868.00;;;;8326947;28;20655;-72
2023/04/04 14:51:58;;;;;;;8.00;3.40;;;;;9.70;96878.00;;;;8319171;28;20276;-71
2023/04/04 14:56:02;;;;;;;4.33;3.63;;;;;9.80;96872.00;;;;8311179;28;20582;-72
2023/04/04 15:00:07;;;;;;;6.23;4.07;;;;;9.90;96877.00;;;;8313386;28;20209;-71
2023/04/04 15:04:10;;;;;;;6.57;4.10;;;;;9.80;96874.00;;;;8313311;28;20694;-70
2023/04/04 15:08:16;;;;;;;8.40;4.60;;;;;9.20;96874.00;;;;8317559;28;20206;-69
2023/04/04 15:12:19;;;;;;;6.83;3.50;;;;;8.60;96872.00;;;;8316002;28;20708;-70
2023/04/04 15:16:23;;;;;;;4.47;3.50;;;;;8.00;96872.00;;;;8310206;28;20247;-72
2023/04/04 15:20:26;;;;;;;4.13;3.60;;;;;7.70;96865.00;;;;8309313;28;20224;-69
2023/04/04 15:24:34;;;;;;;5.70;3.77;;;;;8.00;96867.00;;;;8317162;28;20202;-70
2023/04/04 15:28:37;;;;;;;6.60;3.57;;;;;8.60;96859.00;;;;8317915;28;20193;-69
2023/04/04 15:32:40;;;;;;;8.10;3.77;;;;;9.00;96858.00;;;;8316496;28;20316;-70
2023/04/04 15:36:43;;;;;;;4.57;3.47;;;;;9.30;96858.00;;;;8315163;28;20201;-70
2023/04/04 15:40:50;;;;;;;5.40;3.60;;;;;9.70;96850.00;;;;8313270;28;20203;-70
2023/04/04 15:44:54;;;;;;;5.28;3.28;;;;;9.70;96846.00;;;;8309068;28;20200;-69
2023/04/04 15:48:59;;;;;;;4.63;3.58;;;;;9.70;96856.00;;;;8319756;28;20263;-70
2023/04/04 15:53:02;;;;;;;5.67;4.03;;;;;9.10;96854.00;;;;8314824;28;20280;-71
2023/04/04 15:57:11;;;;;;;7.93;4.20;;;;;8.40;96848.00;;;;8315819;28;20228;-70
2023/04/04 16:01:17;;;;;;;8.70;5.73;;;;;7.90;96843.00;;;;8312458;28;20364;-69
2023/04/04 16:05:20;;;;;;;5.20;4.07;;;;;7.50;96843.00;;;;8311342;28;20225;-70
2023/04/04 16:09:28;;;;;;;6.10;4.17;;;;;7.30;96853.00;;;;8310706;28;20320;-73
2023/04/04 16:13:32;;;;;;;6.33;3.80;;;;;7.20;96847.00;;;;8311780;28;20247;-69
2023/04/04 16:17:35;;;;;;;4.53;3.63;;;;;7.90;96835.00;;;;8311522;28;20204;-72
2023/04/04 16:21:41;;;;;;;6.10;3.50;;;;;8.90;96839.00;;;;8312431;28;20663;-71
2023/04/04 16:25:46;;;;;;;7.27;4.10;;;;;9.00;96838.00;;;;8312576;28;20301;-70
2023/04/04 16:29:52;;;;;;;8.90;5.27;;;;;8.90;96836.00;;;;8304770;28;20236;-71
2023/04/04 16:33:55;;;;;;;5.83;4.27;;;;;8.40;96840.00;;;;8309879;28;20587;-71
2023/04/04 16:37:57;;;;;;;4.10;3.70;;;;;8.50;96840.00;;;;8313564;28;20220;-70
2023/04/04 16:42:01;;;;;;;4.73;3.63;;;;;8.60;96831.00;;;;8306004;28;20234;-71
2023/04/04 16:46:10;;;;;;;6.10;4.30;;;;;8.20;96833.00;;;;8311911;28;20278;-69
2023/04/04 16:50:16;;;;;;;7.03;4.20;;;;;7.50;96826.00;;;;8312958;28;20236;-70
2023/04/04 16:54:19;;;;;;;6.83;4.67;;;;;7.00;96817.00;;;;8310186;28;20193;-70
2023/04/04 16:58:22;;;;;;;4.10;3.57;;;;;6.60;96819.00;;;;8317352;28;20239;-70
2023/04/04 17:02:27;;;;;;;7.80;4.30;;;;;6.40;96809.00;;;;8299534;28;20236;-71
2023/04/04 17:06:34;;;;;;;7.97;4.13;;;;;6.20;96815.00;;;;8299886;28;20201;-71
2023/04/04 17:10:39;;;;;;;4.60;4.20;;;;;6.10;96809.00;;;;8311623;28;20236;-70
2023/04/04 17:14:42;;;;;;;9.20;3.80;;;;;6.00;96812.00;;;;8311808;28;20201;-71
2023/04/04 17:18:49;;;;;;;10.27;5.07;;;;;5.90;96815.00;;;;8310088;28;20974;-70
2023/04/04 17:22:55;;;;;;;15.83;6.57;;;;;5.80;96813.00;;;;8312718;28;20674;-70
2023/04/04 17:26:59;;;;;;;6.23;3.70;;;;;5.60;96807.00;;;;8314959;28;20228;-72
2023/04/04 17:31:02;;;;;;;6.60;4.60;;;;;5.50;96807.00;;;;8313847;28;21933;-71
2023/04/04 17:35:08;;;;;;;7.20;4.50;;;;;5.20;96802.00;;;;8310828;28;20295;-70
2023/04/04 17:39:12;;;;;;;6.87;4.37;;;;;4.90;96796.00;;;;8307424;28;20198;-71
2023/04/04 17:43:15;;;;;;;7.40;4.63;;;;;4.60;96803.00;;;;8304562;28;20199;-70
2023/04/04 17:47:19;;;;;;;9.07;4.20;;;;;4.20;96797.00;;;;8304116;28;20196;-70
2023/04/04 17:51:23;;;;;;;5.27;4.20;;;;;3.90;96803.00;;;;8309209;28;20231;-69
2023/04/04 17:55:28;;;;;;;4.83;4.07;;;;;3.70;96797.00;;;;8309631;28;20222;-71
2023/04/04 17:59:31;;;;;;;5.43;4.50;;;;;3.50;96800.00;;;;8305674;28;20713;-70
2023/04/04 18:03:34;;;;;;;6.57;4.70;;;;;3.20;96799.00;;;;8328763;28;20608;-68
2023/04/04 18:07:46;;;;;;;7.77;4.67;;;;;3.00;96800.00;;;;8334624;28;20192;-68
2023/04/04 18:11:52;;;;;;;6.03;5.27;;;;;2.70;96796.00;;;;8333740;28;20224;-69
2023/04/04 18:15:58;;;;;;;4.63;4.23;;;;;2.50;96793.00;;;;8316995;28;20247;-69
2023/04/04 18:20:03;;;;;;;6.40;4.77;;;;;2.40;96793.00;;;;8333797;28;20285;-68
2023/04/04 18:24:10;;;;;;;8.60;5.20;;;;;2.10;96796.00;;;;8334620;28;20189;-69
2023/04/04 18:28:13;;;;;;;6.30;4.90;;;;;2.00;96791.00;;;;8334107;28;20200;-68
2023/04/04 18:32:24;;;;;;;8.10;5.50;;;;;1.80;96796.00;;;;8316465;28;20685;-68
2023/04/04 18:36:31;;;;;;;9.40;5.13;;;;;1.60;96797.00;;;;8333171;28;20188;-68
2023/04/04 18:40:36;;;;;;;11.73;6.17;;;;;1.60;96799.00;;;;8299099;28;20255;-68
2023/04/04 18:44:40;;;;;;;8.53;5.70;;;;;1.50;96796.00;;;;8333431;28;20200;-68
2023/04/04 18:48:42;;;;;;;8.10;5.53;;;;;1.40;96800.00;;;;8333386;28;20194;-67
2023/04/04 18:52:45;;;;;;;8.30;4.53;;;;;1.30;96801.00;;;;8333882;28;20222;-67
2023/04/04 18:56:52;;;;;;;8.57;5.07;;;;;1.20;96811.00;;;;8333575;28;20243;-67
2023/04/04 19:00:57;;;;;;;10.37;5.80;;;;;1.10;96798.00;;;;8332386;28;20203;-67
2023/04/04 19:05:05;;;;;;;7.60;5.37;;;;;1.10;96809.00;;;;8333558;28;20228;-66
2023/04/04 19:09:09;;;;;;;9.23;5.97;;;;;1.00;96811.00;;;;8331202;28;20191;-66
2023/04/04 19:13:14;;;;;;;9.50;5.83;;;;;1.00;96809.00;;;;8332490;28;20257;-66
2023/04/04 19:17:20;;;;;;;10.53;6.60;;;;;1.00;96809.00;;;;8331833;28;20198;-66
2023/04/04 19:21:27;;;;;;;10.50;6.50;;;;;1.00;96810.00;;;;8331795;28;20197;-66
2023/04/04 19:25:32;;;;;;;12.20;6.43;;;;;1.00;96806.00;;;;8332270;28;20306;-65
2023/04/04 19:29:38;;;;;;;10.10;6.03;;;;;1.10;96806.00;;;;8331748;28;20248;-65
2023/04/04 19:33:45;;;;;;;9.17;6.33;;;;;1.20;96823.00;;;;8328892;28;20221;-66
2023/04/04 19:37:52;;;;;;;10.97;5.60;;;;;1.30;96817.00;;;;8331571;28;20204;-65
2023/04/04 19:41:55;;;;;;;10.97;6.17;;;;;1.40;96823.00;;;;8329717;28;20206;-65
2023/04/04 19:46:10;;;;;;;11.20;6.43;;;;;1.50;96820.00;;;;8329928;28;20205;-66
2023/04/04 19:50:34;;;;;;;9.00;6.20;;;;;1.60;96817.00;;;;8329727;28;20197;-65
2023/04/04 19:54:42;;;;;;;12.30;6.37;;;;;1.70;96822.00;;;;8332530;28;20193;-65
2023/04/04 19:58:47;;;;;;;11.83;6.37;;;;;1.80;96819.00;;;;8331002;28;20198;-65
2023/04/04 20:02:53;;;;;;;8.20;6.30;;;;;1.90;96820.00;;;;8331426;28;20264;-65
2023/04/04 20:06:56;;;;;;;10.43;6.60;;;;;2.00;96813.00;;;;8330545;28;20197;-65
2023/04/04 20:11:00;;;;;;;11.17;6.97;;;;;2.10;96817.00;;;;8331339;28;20322;-65
2023/04/04 20:15:13;;;;;;;14.27;6.77;;;;;2.10;96810.00;;;;8330754;28;20204;-65
2023/04/04 20:19:21;;;;;;;14.00;6.50;;;;;2.10;96819.00;;;;8331211;28;20683;-65
2023/04/04 20:23:24;;;;;;;11.40;6.40;;;;;2.10;96812.00;;;;8331484;28;20189;-65
2023/04/04 20:27:27;;;;;;;12.40;6.63;;;;;2.20;96814.00;;;;8334408;28;20380;-65
2023/04/04 20:31:34;;;;;;;11.40;6.07;;;;;2.20;96818.00;;;;8334218;28;20298;-65
2023/04/04 20:35:41;;;;;;;9.47;6.17;;;;;2.00;96819.00;;;;8337930;28;20242;-65
2023/04/04 20:39:49;;;;;;;13.10;7.83;;;;;1.90;96822.00;;;;8337214;28;20586;-65